sensor_id;sensor_type;location;lat;lon;timestamp;P1;durP1;ratioP1;P2;durP2;ratioP2
20749;SDS011;10535;50.664;4.564;2022-10-31T00:00:52;16.73;;;8.77;;
20749;SDS011;10535;50.664;4.564;2022-10-31T00:03:17;19.57;;;8.83;;
20749;SDS011;10535;50.664;4.564;2022-10-31T00:05:44;16.97;;;8.53;;
20749;SDS011;10535;50.664;4.564;2022-10-31T00:08:12;15.53;;;9.20;;
20749;SDS011;10535;50.664;4.564;2022-10-31T00:10:38;13.50;;;7.93;;
20749;SDS011;10535;50.664;4.564;2022-10-31T00:13:05;15.60;;;8.60;;
20749;SDS011;10535;50.664;4.564;2022-10-31T00:15:32;19.40;;;9.50;;
20749;SDS011;10535;50.664;4.564;2022-10-31T00:17:59;18.20;;;7.93;;
20749;SDS011;10535;50.664;4.564;2022-10-31T00:20:25;12.03;;;7.03;;
20749;SDS011;10535;50.664;4.564;2022-10-31T00:22:52;12.77;;;8.23;;
20749;SDS011;10535;50.664;4.564;2022-10-31T00:25:17;19.80;;;9.17;;
20749;SDS011;10535;50.664;4.564;2022-10-31T00:27:45;19.73;;;9.13;;
20749;SDS011;10535;50.664;4.564;2022-10-31T00:30:11;19.93;;;9.20;;
20749;SDS011;10535;50.664;4.564;2022-10-31T00:32:36;17.87;;;7.97;;
20749;SDS011;10535;50.664;4.564;2022-10-31T00:35:02;18.13;;;8.23;;
20749;SDS011;10535;50.664;4.564;2022-10-31T00:37:28;16.50;;;8.70;;
20749;SDS011;10535;50.664;4.564;2022-10-31T00:39:53;15.80;;;8.40;;
20749;SDS011;10535;50.664;4.564;2022-10-31T00:42:19;15.43;;;8.57;;
20749;SDS011;10535;50.664;4.564;2022-10-31T00:44:44;17.60;;;7.83;;
20749;SDS011;10535;50.664;4.564;2022-10-31T00:47:10;16.37;;;7.30;;
20749;SDS011;10535;50.664;4.564;2022-10-31T00:49:36;19.00;;;9.27;;
20749;SDS011;10535;50.664;4.564;2022-10-31T00:52:01;14.43;;;7.50;;
20749;SDS011;10535;50.664;4.564;2022-10-31T00:54:28;14.07;;;7.93;;
20749;SDS011;10535;50.664;4.564;2022-10-31T00:56:55;19.20;;;8.70;;
20749;SDS011;10535;50.664;4.564;2022-10-31T00:59:21;16.03;;;7.67;;
20749;SDS011;10535;50.664;4.564;2022-10-31T01:01:47;17.97;;;8.23;;
20749;SDS011;10535;50.664;4.564;2022-10-31T01:04:13;20.63;;;7.90;;
20749;SDS011;10535;50.664;4.564;2022-10-31T01:06:38;14.43;;;7.97;;
20749;SDS011;10535;50.664;4.564;2022-10-31T01:09:04;19.90;;;9.20;;
20749;SDS011;10535;50.664;4.564;2022-10-31T01:11:29;14.57;;;8.20;;
20749;SDS011;10535;50.664;4.564;2022-10-31T01:13:55;20.63;;;8.73;;
20749;SDS011;10535;50.664;4.564;2022-10-31T01:16:22;13.70;;;7.53;;
20749;SDS011;10535;50.664;4.564;2022-10-31T01:18:50;23.83;;;8.50;;
20749;SDS011;10535;50.664;4.564;2022-10-31T01:21:22;18.53;;;8.10;;
20749;SDS011;10535;50.664;4.564;2022-10-31T01:23:50;15.90;;;8.10;;
20749;SDS011;10535;50.664;4.564;2022-10-31T01:26:17;20.20;;;8.13;;
20749;SDS011;10535;50.664;4.564;2022-10-31T01:28:49;21.07;;;9.03;;
20749;SDS011;10535;50.664;4.564;2022-10-31T01:31:18;14.53;;;8.67;;
20749;SDS011;10535;50.664;4.564;2022-10-31T01:33:45;15.83;;;8.60;;
20749;SDS011;10535;50.664;4.564;2022-10-31T01:36:12;14.80;;;8.30;;
20749;SDS011;10535;50.664;4.564;2022-10-31T01:38:38;21.57;;;8.80;;
20749;SDS011;10535;50.664;4.564;2022-10-31T01:41:04;15.90;;;8.03;;
20749;SDS011;10535;50.664;4.564;2022-10-31T01:43:42;17.67;;;8.67;;
20749;SDS011;10535;50.664;4.564;2022-10-31T01:46:17;16.33;;;8.17;;
20749;SDS011;10535;50.664;4.564;2022-10-31T01:49:09;17.97;;;9.17;;
20749;SDS011;10535;50.664;4.564;2022-10-31T01:51:41;22.47;;;8.13;;
20749;SDS011;10535;50.664;4.564;2022-10-31T01:54:13;13.53;;;7.73;;
20749;SDS011;10535;50.664;4.564;2022-10-31T01:56:43;19.13;;;9.03;;
20749;SDS011;10535;50.664;4.564;2022-10-31T01:59:15;17.30;;;8.10;;
20749;SDS011;10535;50.664;4.564;2022-10-31T02:01:46;19.60;;;9.23;;
20749;SDS011;10535;50.664;4.564;2022-10-31T02:04:14;14.73;;;9.23;;
20749;SDS011;10535;50.664;4.564;2022-10-31T02:09:23;16.67;;;9.93;;
20749;SDS011;10535;50.664;4.564;2022-10-31T02:11:53;16.63;;;8.47;;
20749;SDS011;10535;50.664;4.564;2022-10-31T02:14:22;18.37;;;8.80;;
20749;SDS011;10535;50.664;4.564;2022-10-31T02:16:50;18.73;;;9.60;;
20749;SDS011;10535;50.664;4.564;2022-10-31T02:19:18;16.20;;;8.13;;
20749;SDS011;10535;50.664;4.564;2022-10-31T02:21:53;16.43;;;8.60;;
20749;SDS011;10535;50.664;4.564;2022-10-31T02:30:18;15.13;;;8.90;;
20749;SDS011;10535;50.664;4.564;2022-10-31T02:35:29;20.53;;;9.10;;
20749;SDS011;10535;50.664;4.564;2022-10-31T02:38:03;21.33;;;8.97;;
20749;SDS011;10535;50.664;4.564;2022-10-31T02:40:36;15.57;;;8.57;;
20749;SDS011;10535;50.664;4.564;2022-10-31T02:43:21;19.67;;;8.83;;
20749;SDS011;10535;50.664;4.564;2022-10-31T02:46:14;15.67;;;7.97;;
20749;SDS011;10535;50.664;4.564;2022-10-31T02:48:50;16.93;;;8.77;;
20749;SDS011;10535;50.664;4.564;2022-10-31T02:51:20;17.27;;;9.57;;
20749;SDS011;10535;50.664;4.564;2022-10-31T02:53:46;20.63;;;9.07;;
20749;SDS011;10535;50.664;4.564;2022-10-31T02:56:16;19.03;;;8.83;;
20749;SDS011;10535;50.664;4.564;2022-10-31T02:59:02;21.63;;;8.47;;
20749;SDS011;10535;50.664;4.564;2022-10-31T03:06:50;16.20;;;8.17;;
20749;SDS011;10535;50.664;4.564;2022-10-31T03:12:08;16.97;;;9.07;;
20749;SDS011;10535;50.664;4.564;2022-10-31T03:14:41;15.77;;;9.03;;
20749;SDS011;10535;50.664;4.564;2022-10-31T03:17:18;15.70;;;9.07;;
20749;SDS011;10535;50.664;4.564;2022-10-31T03:19:50;21.17;;;8.60;;
20749;SDS011;10535;50.664;4.564;2022-10-31T03:22:20;17.47;;;9.20;;
20749;SDS011;10535;50.664;4.564;2022-10-31T03:24:51;15.13;;;9.07;;
20749;SDS011;10535;50.664;4.564;2022-10-31T03:27:19;18.53;;;8.40;;
20749;SDS011;10535;50.664;4.564;2022-10-31T03:29:49;16.13;;;8.00;;
20749;SDS011;10535;50.664;4.564;2022-10-31T03:32:18;19.07;;;8.53;;
20749;SDS011;10535;50.664;4.564;2022-10-31T03:34:58;13.23;;;7.47;;
20749;SDS011;10535;50.664;4.564;2022-10-31T03:37:27;13.47;;;6.97;;
20749;SDS011;10535;50.664;4.564;2022-10-31T03:39:55;14.70;;;7.47;;
20749;SDS011;10535;50.664;4.564;2022-10-31T03:42:24;12.23;;;7.70;;
20749;SDS011;10535;50.664;4.564;2022-10-31T03:45:13;13.63;;;6.77;;
20749;SDS011;10535;50.664;4.564;2022-10-31T03:47:50;14.03;;;7.27;;
20749;SDS011;10535;50.664;4.564;2022-10-31T03:50:18;14.50;;;6.87;;
20749;SDS011;10535;50.664;4.564;2022-10-31T03:52:46;17.53;;;7.70;;
20749;SDS011;10535;50.664;4.564;2022-10-31T03:58:02;17.73;;;8.23;;
20749;SDS011;10535;50.664;4.564;2022-10-31T04:00:33;19.80;;;8.10;;
20749;SDS011;10535;50.664;4.564;2022-10-31T04:03:06;16.63;;;9.33;;
20749;SDS011;10535;50.664;4.564;2022-10-31T04:05:39;19.60;;;8.87;;
20749;SDS011;10535;50.664;4.564;2022-10-31T04:08:08;21.37;;;9.33;;
20749;SDS011;10535;50.664;4.564;2022-10-31T04:10:37;19.47;;;8.17;;
20749;SDS011;10535;50.664;4.564;2022-10-31T04:13:07;15.73;;;8.80;;
20749;SDS011;10535;50.664;4.564;2022-10-31T04:15:36;17.73;;;9.33;;
20749;SDS011;10535;50.664;4.564;2022-10-31T04:18:03;19.63;;;8.93;;
20749;SDS011;10535;50.664;4.564;2022-10-31T04:23:00;17.47;;;8.97;;
20749;SDS011;10535;50.664;4.564;2022-10-31T04:25:30;19.53;;;7.93;;
20749;SDS011;10535;50.664;4.564;2022-10-31T04:27:57;14.73;;;8.70;;
20749;SDS011;10535;50.664;4.564;2022-10-31T04:30:24;16.70;;;7.37;;
20749;SDS011;10535;50.664;4.564;2022-10-31T04:32:51;15.83;;;8.30;;
20749;SDS011;10535;50.664;4.564;2022-10-31T04:35:28;15.83;;;8.77;;
20749;SDS011;10535;50.664;4.564;2022-10-31T04:37:54;14.20;;;7.50;;
20749;SDS011;10535;50.664;4.564;2022-10-31T04:40:19;21.43;;;9.20;;
20749;SDS011;10535;50.664;4.564;2022-10-31T04:42:45;17.07;;;8.17;;
20749;SDS011;10535;50.664;4.564;2022-10-31T04:45:10;13.63;;;7.73;;
20749;SDS011;10535;50.664;4.564;2022-10-31T04:47:36;17.23;;;9.17;;
20749;SDS011;10535;50.664;4.564;2022-10-31T04:50:02;13.57;;;8.43;;
20749;SDS011;10535;50.664;4.564;2022-10-31T04:52:28;14.83;;;8.20;;
20749;SDS011;10535;50.664;4.564;2022-10-31T04:54:53;13.30;;;7.50;;
20749;SDS011;10535;50.664;4.564;2022-10-31T04:57:19;20.40;;;8.40;;
20749;SDS011;10535;50.664;4.564;2022-10-31T04:59:44;16.73;;;8.50;;
20749;SDS011;10535;50.664;4.564;2022-10-31T05:02:13;19.07;;;8.23;;
20749;SDS011;10535;50.664;4.564;2022-10-31T05:04:38;18.63;;;7.60;;
20749;SDS011;10535;50.664;4.564;2022-10-31T05:07:07;18.27;;;9.17;;
20749;SDS011;10535;50.664;4.564;2022-10-31T05:09:32;13.77;;;8.43;;
20749;SDS011;10535;50.664;4.564;2022-10-31T05:11:58;16.23;;;8.23;;
20749;SDS011;10535;50.664;4.564;2022-10-31T05:14:23;16.00;;;8.60;;
20749;SDS011;10535;50.664;4.564;2022-10-31T05:16:50;12.53;;;7.87;;
20749;SDS011;10535;50.664;4.564;2022-10-31T05:19:16;18.90;;;9.37;;
20749;SDS011;10535;50.664;4.564;2022-10-31T05:21:42;14.13;;;7.97;;
20749;SDS011;10535;50.664;4.564;2022-10-31T05:24:07;14.80;;;8.03;;
20749;SDS011;10535;50.664;4.564;2022-10-31T05:26:33;12.53;;;7.47;;
20749;SDS011;10535;50.664;4.564;2022-10-31T05:28:58;18.90;;;8.03;;
20749;SDS011;10535;50.664;4.564;2022-10-31T05:31:24;15.10;;;8.47;;
20749;SDS011;10535;50.664;4.564;2022-10-31T05:33:50;13.73;;;7.13;;
20749;SDS011;10535;50.664;4.564;2022-10-31T05:36:15;14.87;;;7.83;;
20749;SDS011;10535;50.664;4.564;2022-10-31T05:38:41;12.20;;;7.43;;
20749;SDS011;10535;50.664;4.564;2022-10-31T05:41:06;15.03;;;8.13;;
20749;SDS011;10535;50.664;4.564;2022-10-31T05:43:32;13.93;;;7.70;;
20749;SDS011;10535;50.664;4.564;2022-10-31T05:45:57;13.47;;;8.03;;
20749;SDS011;10535;50.664;4.564;2022-10-31T05:48:23;13.93;;;7.73;;
20749;SDS011;10535;50.664;4.564;2022-10-31T05:50:49;12.83;;;7.27;;
20749;SDS011;10535;50.664;4.564;2022-10-31T05:53:15;14.47;;;7.30;;
20749;SDS011;10535;50.664;4.564;2022-10-31T05:55:41;16.67;;;7.30;;
20749;SDS011;10535;50.664;4.564;2022-10-31T05:58:08;15.07;;;9.00;;
20749;SDS011;10535;50.664;4.564;2022-10-31T06:00:34;14.63;;;7.93;;
20749;SDS011;10535;50.664;4.564;2022-10-31T06:03:01;12.87;;;7.33;;
20749;SDS011;10535;50.664;4.564;2022-10-31T06:05:29;13.43;;;7.53;;
20749;SDS011;10535;50.664;4.564;2022-10-31T06:07:55;17.27;;;7.77;;
20749;SDS011;10535;50.664;4.564;2022-10-31T06:10:21;20.27;;;8.33;;
20749;SDS011;10535;50.664;4.564;2022-10-31T06:12:47;14.63;;;7.53;;
20749;SDS011;10535;50.664;4.564;2022-10-31T06:15:13;13.17;;;7.07;;
20749;SDS011;10535;50.664;4.564;2022-10-31T06:17:39;13.93;;;8.60;;
20749;SDS011;10535;50.664;4.564;2022-10-31T06:20:05;11.10;;;6.60;;
20749;SDS011;10535;50.664;4.564;2022-10-31T06:22:32;13.67;;;8.07;;
20749;SDS011;10535;50.664;4.564;2022-10-31T06:24:58;13.73;;;7.50;;
20749;SDS011;10535;50.664;4.564;2022-10-31T06:27:24;14.80;;;7.40;;
20749;SDS011;10535;50.664;4.564;2022-10-31T06:29:50;14.13;;;6.73;;
20749;SDS011;10535;50.664;4.564;2022-10-31T06:32:15;11.90;;;7.40;;
20749;SDS011;10535;50.664;4.564;2022-10-31T06:34:42;11.10;;;6.90;;
20749;SDS011;10535;50.664;4.564;2022-10-31T06:37:09;13.60;;;7.10;;
20749;SDS011;10535;50.664;4.564;2022-10-31T06:39:35;17.37;;;8.73;;
20749;SDS011;10535;50.664;4.564;2022-10-31T06:42:01;13.43;;;7.60;;
20749;SDS011;10535;50.664;4.564;2022-10-31T06:44:27;11.63;;;7.23;;
20749;SDS011;10535;50.664;4.564;2022-10-31T06:46:53;14.30;;;7.40;;
20749;SDS011;10535;50.664;4.564;2022-10-31T06:49:18;13.50;;;7.97;;
20749;SDS011;10535;50.664;4.564;2022-10-31T06:51:46;14.40;;;7.30;;
20749;SDS011;10535;50.664;4.564;2022-10-31T06:54:13;15.27;;;8.63;;
20749;SDS011;10535;50.664;4.564;2022-10-31T06:56:39;13.70;;;8.23;;
20749;SDS011;10535;50.664;4.564;2022-10-31T06:59:04;11.57;;;7.50;;
20749;SDS011;10535;50.664;4.564;2022-10-31T07:01:30;13.40;;;7.77;;
20749;SDS011;10535;50.664;4.564;2022-10-31T07:03:55;15.60;;;7.47;;
20749;SDS011;10535;50.664;4.564;2022-10-31T07:06:21;13.13;;;6.90;;
20749;SDS011;10535;50.664;4.564;2022-10-31T07:08:46;15.43;;;9.33;;
20749;SDS011;10535;50.664;4.564;2022-10-31T07:11:12;12.67;;;8.20;;
20749;SDS011;10535;50.664;4.564;2022-10-31T07:13:38;11.90;;;8.00;;
20749;SDS011;10535;50.664;4.564;2022-10-31T07:16:04;16.90;;;8.67;;
20749;SDS011;10535;50.664;4.564;2022-10-31T07:18:31;12.20;;;7.63;;
20749;SDS011;10535;50.664;4.564;2022-10-31T07:20:57;18.83;;;8.73;;
20749;SDS011;10535;50.664;4.564;2022-10-31T07:23:23;16.53;;;8.23;;
20749;SDS011;10535;50.664;4.564;2022-10-31T07:25:53;15.73;;;8.37;;
20749;SDS011;10535;50.664;4.564;2022-10-31T07:28:23;15.40;;;8.37;;
20749;SDS011;10535;50.664;4.564;2022-10-31T07:30:55;14.30;;;8.80;;
20749;SDS011;10535;50.664;4.564;2022-10-31T07:33:22;16.47;;;7.73;;
20749;SDS011;10535;50.664;4.564;2022-10-31T07:35:51;19.27;;;9.17;;
20749;SDS011;10535;50.664;4.564;2022-10-31T07:38:20;12.60;;;8.60;;
20749;SDS011;10535;50.664;4.564;2022-10-31T07:41:06;16.50;;;8.43;;
20749;SDS011;10535;50.664;4.564;2022-10-31T07:43:31;13.23;;;8.23;;
20749;SDS011;10535;50.664;4.564;2022-10-31T07:45:57;12.97;;;6.90;;
20749;SDS011;10535;50.664;4.564;2022-10-31T07:48:22;15.60;;;7.87;;
20749;SDS011;10535;50.664;4.564;2022-10-31T07:50:48;13.40;;;7.43;;
20749;SDS011;10535;50.664;4.564;2022-10-31T07:53:14;16.80;;;8.40;;
20749;SDS011;10535;50.664;4.564;2022-10-31T07:55:40;15.13;;;8.47;;
20749;SDS011;10535;50.664;4.564;2022-10-31T07:58:16;17.17;;;8.20;;
20749;SDS011;10535;50.664;4.564;2022-10-31T08:00:43;13.93;;;7.80;;
20749;SDS011;10535;50.664;4.564;2022-10-31T08:03:12;19.07;;;8.23;;
20749;SDS011;10535;50.664;4.564;2022-10-31T08:05:40;14.93;;;8.07;;
20749;SDS011;10535;50.664;4.564;2022-10-31T08:08:11;16.33;;;8.90;;
20749;SDS011;10535;50.664;4.564;2022-10-31T08:10:44;15.00;;;8.57;;
20749;SDS011;10535;50.664;4.564;2022-10-31T08:13:30;18.53;;;9.27;;
20749;SDS011;10535;50.664;4.564;2022-10-31T08:16:07;10.93;;;7.20;;
20749;SDS011;10535;50.664;4.564;2022-10-31T08:19:03;16.90;;;8.93;;
20749;SDS011;10535;50.664;4.564;2022-10-31T08:21:31;13.73;;;7.33;;
20749;SDS011;10535;50.664;4.564;2022-10-31T08:24:06;15.97;;;7.83;;
20749;SDS011;10535;50.664;4.564;2022-10-31T08:26:35;17.27;;;8.00;;
20749;SDS011;10535;50.664;4.564;2022-10-31T08:29:03;15.23;;;8.10;;
20749;SDS011;10535;50.664;4.564;2022-10-31T08:31:29;17.07;;;8.20;;
20749;SDS011;10535;50.664;4.564;2022-10-31T08:33:55;16.67;;;7.27;;
20749;SDS011;10535;50.664;4.564;2022-10-31T08:36:21;13.40;;;7.80;;
20749;SDS011;10535;50.664;4.564;2022-10-31T08:38:47;18.70;;;8.13;;
20749;SDS011;10535;50.664;4.564;2022-10-31T08:41:13;16.60;;;7.23;;
20749;SDS011;10535;50.664;4.564;2022-10-31T08:43:46;15.90;;;7.53;;
20749;SDS011;10535;50.664;4.564;2022-10-31T08:46:12;14.27;;;8.03;;
20749;SDS011;10535;50.664;4.564;2022-10-31T08:48:39;9.43;;;6.53;;
20749;SDS011;10535;50.664;4.564;2022-10-31T08:51:06;15.80;;;7.43;;
20749;SDS011;10535;50.664;4.564;2022-10-31T08:53:32;20.57;;;7.17;;
20749;SDS011;10535;50.664;4.564;2022-10-31T08:56:00;13.47;;;7.67;;
20749;SDS011;10535;50.664;4.564;2022-10-31T08:58:26;17.60;;;7.53;;
20749;SDS011;10535;50.664;4.564;2022-10-31T09:01:34;12.77;;;7.00;;
20749;SDS011;10535;50.664;4.564;2022-10-31T09:04:00;24.27;;;7.17;;
20749;SDS011;10535;50.664;4.564;2022-10-31T09:09:03;12.03;;;7.13;;
20749;SDS011;10535;50.664;4.564;2022-10-31T09:12:08;13.33;;;7.50;;
20749;SDS011;10535;50.664;4.564;2022-10-31T09:14:36;13.50;;;7.10;;
20749;SDS011;10535;50.664;4.564;2022-10-31T09:17:02;14.43;;;7.10;;
20749;SDS011;10535;50.664;4.564;2022-10-31T09:19:27;15.43;;;6.80;;
20749;SDS011;10535;50.664;4.564;2022-10-31T09:21:54;13.03;;;7.10;;
20749;SDS011;10535;50.664;4.564;2022-10-31T09:24:21;11.17;;;6.47;;
20749;SDS011;10535;50.664;4.564;2022-10-31T09:26:47;17.43;;;7.07;;
20749;SDS011;10535;50.664;4.564;2022-10-31T09:29:12;12.57;;;6.70;;
20749;SDS011;10535;50.664;4.564;2022-10-31T09:31:38;10.00;;;6.23;;
20749;SDS011;10535;50.664;4.564;2022-10-31T09:34:04;15.37;;;6.40;;
20749;SDS011;10535;50.664;4.564;2022-10-31T09:36:39;15.00;;;7.33;;
20749;SDS011;10535;50.664;4.564;2022-10-31T09:39:21;11.60;;;6.20;;
20749;SDS011;10535;50.664;4.564;2022-10-31T09:44:46;14.43;;;7.23;;
20749;SDS011;10535;50.664;4.564;2022-10-31T09:47:31;11.40;;;7.10;;
20749;SDS011;10535;50.664;4.564;2022-10-31T09:53:03;13.73;;;7.33;;
20749;SDS011;10535;50.664;4.564;2022-10-31T09:55:36;11.17;;;6.50;;
20749;SDS011;10535;50.664;4.564;2022-10-31T09:58:08;12.90;;;7.27;;
20749;SDS011;10535;50.664;4.564;2022-10-31T10:00:44;13.23;;;7.27;;
20749;SDS011;10535;50.664;4.564;2022-10-31T10:03:34;11.07;;;6.40;;
20749;SDS011;10535;50.664;4.564;2022-10-31T10:06:19;11.47;;;6.00;;
20749;SDS011;10535;50.664;4.564;2022-10-31T10:08:48;9.87;;;6.17;;
20749;SDS011;10535;50.664;4.564;2022-10-31T10:22:20;14.07;;;5.93;;
20749;SDS011;10535;50.664;4.564;2022-10-31T10:30:41;10.40;;;5.10;;
20749;SDS011;10535;50.664;4.564;2022-10-31T10:33:59;10.97;;;6.07;;
20749;SDS011;10535;50.664;4.564;2022-10-31T10:39:51;10.30;;;5.20;;
20749;SDS011;10535;50.664;4.564;2022-10-31T10:42:25;10.03;;;5.83;;
20749;SDS011;10535;50.664;4.564;2022-10-31T10:45:15;10.47;;;5.57;;
20749;SDS011;10535;50.664;4.564;2022-10-31T10:48:05;7.10;;;4.53;;
20749;SDS011;10535;50.664;4.564;2022-10-31T10:50:48;11.77;;;6.80;;
20749;SDS011;10535;50.664;4.564;2022-10-31T10:53:34;9.67;;;5.50;;
20749;SDS011;10535;50.664;4.564;2022-10-31T10:59:28;13.47;;;5.03;;
20749;SDS011;10535;50.664;4.564;2022-10-31T11:01:55;9.97;;;5.07;;
20749;SDS011;10535;50.664;4.564;2022-10-31T11:04:25;9.73;;;5.00;;
20749;SDS011;10535;50.664;4.564;2022-10-31T11:07:01;11.33;;;4.60;;
20749;SDS011;10535;50.664;4.564;2022-10-31T11:09:35;14.73;;;4.90;;
20749;SDS011;10535;50.664;4.564;2022-10-31T11:12:18;9.60;;;4.40;;
20749;SDS011;10535;50.664;4.564;2022-10-31T11:14:57;8.93;;;4.60;;
20749;SDS011;10535;50.664;4.564;2022-10-31T11:17:39;8.33;;;4.33;;
20749;SDS011;10535;50.664;4.564;2022-10-31T11:23:19;8.13;;;4.50;;
20749;SDS011;10535;50.664;4.564;2022-10-31T11:25:48;12.60;;;5.00;;
20749;SDS011;10535;50.664;4.564;2022-10-31T11:28:26;6.63;;;4.23;;
20749;SDS011;10535;50.664;4.564;2022-10-31T11:30:55;7.57;;;4.20;;
20749;SDS011;10535;50.664;4.564;2022-10-31T11:33:32;9.53;;;5.10;;
20749;SDS011;10535;50.664;4.564;2022-10-31T11:36:24;8.67;;;4.10;;
20749;SDS011;10535;50.664;4.564;2022-10-31T11:38:59;10.80;;;4.60;;
20749;SDS011;10535;50.664;4.564;2022-10-31T11:41:38;9.33;;;4.07;;
20749;SDS011;10535;50.664;4.564;2022-10-31T11:44:13;7.83;;;3.97;;
20749;SDS011;10535;50.664;4.564;2022-10-31T11:46:43;9.43;;;4.27;;
20749;SDS011;10535;50.664;4.564;2022-10-31T11:49:37;9.47;;;4.37;;
20749;SDS011;10535;50.664;4.564;2022-10-31T11:52:06;7.80;;;3.53;;
20749;SDS011;10535;50.664;4.564;2022-10-31T11:55:03;11.77;;;3.83;;
20749;SDS011;10535;50.664;4.564;2022-10-31T11:57:54;11.30;;;4.10;;
20749;SDS011;10535;50.664;4.564;2022-10-31T12:02:46;11.47;;;4.13;;
20749;SDS011;10535;50.664;4.564;2022-10-31T12:05:22;9.87;;;4.50;;
20749;SDS011;10535;50.664;4.564;2022-10-31T12:07:58;7.73;;;4.47;;
20749;SDS011;10535;50.664;4.564;2022-10-31T12:10:38;12.73;;;3.80;;
20749;SDS011;10535;50.664;4.564;2022-10-31T12:13:39;5.93;;;3.60;;
20749;SDS011;10535;50.664;4.564;2022-10-31T12:16:37;8.40;;;4.17;;
20749;SDS011;10535;50.664;4.564;2022-10-31T12:19:50;8.33;;;3.67;;
20749;SDS011;10535;50.664;4.564;2022-10-31T12:39:00;11.60;;;3.70;;
20749;SDS011;10535;50.664;4.564;2022-10-31T12:42:02;7.77;;;2.97;;
20749;SDS011;10535;50.664;4.564;2022-10-31T12:45:03;8.67;;;2.80;;
20749;SDS011;10535;50.664;4.564;2022-10-31T12:50:13;4.97;;;2.80;;
20749;SDS011;10535;50.664;4.564;2022-10-31T12:53:14;8.90;;;3.40;;
20749;SDS011;10535;50.664;4.564;2022-10-31T12:58:49;6.23;;;2.87;;
20749;SDS011;10535;50.664;4.564;2022-10-31T13:01:27;7.03;;;3.37;;
20749;SDS011;10535;50.664;4.564;2022-10-31T13:04:05;8.23;;;3.20;;
20749;SDS011;10535;50.664;4.564;2022-10-31T13:07:00;3.30;;;2.50;;
20749;SDS011;10535;50.664;4.564;2022-10-31T13:09:35;15.33;;;4.67;;
20749;SDS011;10535;50.664;4.564;2022-10-31T13:12:09;5.93;;;3.03;;
20749;SDS011;10535;50.664;4.564;2022-10-31T13:14:39;10.37;;;3.63;;
20749;SDS011;10535;50.664;4.564;2022-10-31T13:17:10;8.07;;;3.00;;
20749;SDS011;10535;50.664;4.564;2022-10-31T13:19:45;7.90;;;3.93;;
20749;SDS011;10535;50.664;4.564;2022-10-31T13:22:14;12.37;;;3.23;;
20749;SDS011;10535;50.664;4.564;2022-10-31T13:24:44;8.97;;;3.10;;
20749;SDS011;10535;50.664;4.564;2022-10-31T13:27:44;10.10;;;3.23;;
20749;SDS011;10535;50.664;4.564;2022-10-31T13:30:19;7.63;;;2.93;;
20749;SDS011;10535;50.664;4.564;2022-10-31T13:32:58;6.77;;;2.63;;
20749;SDS011;10535;50.664;4.564;2022-10-31T13:38:41;14.37;;;3.53;;
20749;SDS011;10535;50.664;4.564;2022-10-31T13:44:03;5.27;;;3.37;;
20749;SDS011;10535;50.664;4.564;2022-10-31T13:46:37;5.30;;;2.93;;
20749;SDS011;10535;50.664;4.564;2022-10-31T13:49:18;9.10;;;3.87;;
20749;SDS011;10535;50.664;4.564;2022-10-31T13:54:37;7.20;;;2.47;;
20749;SDS011;10535;50.664;4.564;2022-10-31T13:57:22;7.47;;;2.70;;
20749;SDS011;10535;50.664;4.564;2022-10-31T13:59:55;7.23;;;3.23;;
20749;SDS011;10535;50.664;4.564;2022-10-31T14:02:25;4.53;;;2.97;;
20749;SDS011;10535;50.664;4.564;2022-10-31T14:04:59;9.47;;;3.27;;
20749;SDS011;10535;50.664;4.564;2022-10-31T14:07:27;9.30;;;3.33;;
20749;SDS011;10535;50.664;4.564;2022-10-31T14:10:02;8.03;;;2.60;;
20749;SDS011;10535;50.664;4.564;2022-10-31T14:12:45;9.73;;;3.90;;
20749;SDS011;10535;50.664;4.564;2022-10-31T14:15:19;8.83;;;3.33;;
20749;SDS011;10535;50.664;4.564;2022-10-31T14:17:48;6.90;;;2.67;;
20749;SDS011;10535;50.664;4.564;2022-10-31T14:22:42;5.30;;;3.00;;
20749;SDS011;10535;50.664;4.564;2022-10-31T14:25:24;9.73;;;3.17;;
20749;SDS011;10535;50.664;4.564;2022-10-31T14:27:50;8.57;;;3.30;;
20749;SDS011;10535;50.664;4.564;2022-10-31T14:30:18;7.80;;;2.90;;
20749;SDS011;10535;50.664;4.564;2022-10-31T14:33:09;6.47;;;2.73;;
20749;SDS011;10535;50.664;4.564;2022-10-31T14:36:03;8.83;;;4.00;;
20749;SDS011;10535;50.664;4.564;2022-10-31T14:41:39;4.70;;;3.10;;
20749;SDS011;10535;50.664;4.564;2022-10-31T14:49:44;7.13;;;2.97;;
20749;SDS011;10535;50.664;4.564;2022-10-31T14:52:32;5.47;;;2.90;;
20749;SDS011;10535;50.664;4.564;2022-10-31T14:54:59;6.13;;;3.00;;
20749;SDS011;10535;50.664;4.564;2022-10-31T14:57:30;7.87;;;2.87;;
20749;SDS011;10535;50.664;4.564;2022-10-31T15:00:12;8.13;;;3.63;;
20749;SDS011;10535;50.664;4.564;2022-10-31T15:05:20;7.60;;;3.83;;
20749;SDS011;10535;50.664;4.564;2022-10-31T15:07:55;8.17;;;2.80;;
20749;SDS011;10535;50.664;4.564;2022-10-31T15:10:24;8.30;;;3.67;;
20749;SDS011;10535;50.664;4.564;2022-10-31T15:12:52;7.30;;;3.60;;
20749;SDS011;10535;50.664;4.564;2022-10-31T15:15:21;13.83;;;3.93;;
20749;SDS011;10535;50.664;4.564;2022-10-31T15:17:55;7.90;;;3.43;;
20749;SDS011;10535;50.664;4.564;2022-10-31T15:20:30;7.73;;;3.07;;
20749;SDS011;10535;50.664;4.564;2022-10-31T15:23:23;7.93;;;3.17;;
20749;SDS011;10535;50.664;4.564;2022-10-31T15:26:00;7.90;;;3.63;;
20749;SDS011;10535;50.664;4.564;2022-10-31T15:28:28;8.97;;;3.43;;
20749;SDS011;10535;50.664;4.564;2022-10-31T15:31:00;5.67;;;2.57;;
20749;SDS011;10535;50.664;4.564;2022-10-31T15:33:30;7.53;;;3.23;;
20749;SDS011;10535;50.664;4.564;2022-10-31T15:36:04;4.87;;;2.63;;
20749;SDS011;10535;50.664;4.564;2022-10-31T15:38:31;11.17;;;3.23;;
20749;SDS011;10535;50.664;4.564;2022-10-31T15:43:27;12.40;;;4.10;;
20749;SDS011;10535;50.664;4.564;2022-10-31T15:46:04;11.87;;;3.50;;
20749;SDS011;10535;50.664;4.564;2022-10-31T15:48:33;8.90;;;2.83;;
20749;SDS011;10535;50.664;4.564;2022-10-31T15:50:59;10.37;;;2.77;;
20749;SDS011;10535;50.664;4.564;2022-10-31T15:53:37;9.97;;;3.40;;
20749;SDS011;10535;50.664;4.564;2022-10-31T15:56:11;11.13;;;2.90;;
20749;SDS011;10535;50.664;4.564;2022-10-31T15:58:45;6.77;;;2.83;;
20749;SDS011;10535;50.664;4.564;2022-10-31T16:01:27;11.93;;;3.80;;
20749;SDS011;10535;50.664;4.564;2022-10-31T16:06:28;7.47;;;2.83;;
20749;SDS011;10535;50.664;4.564;2022-10-31T16:08:54;14.90;;;4.70;;
20749;SDS011;10535;50.664;4.564;2022-10-31T16:13:59;12.70;;;4.47;;
20749;SDS011;10535;50.664;4.564;2022-10-31T16:16:29;11.40;;;4.40;;
20749;SDS011;10535;50.664;4.564;2022-10-31T16:18:56;11.37;;;4.13;;
20749;SDS011;10535;50.664;4.564;2022-10-31T16:21:26;10.07;;;4.13;;
20749;SDS011;10535;50.664;4.564;2022-10-31T16:23:56;12.17;;;4.17;;
20749;SDS011;10535;50.664;4.564;2022-10-31T16:26:39;14.33;;;4.50;;
20749;SDS011;10535;50.664;4.564;2022-10-31T16:29:22;10.77;;;4.20;;
20749;SDS011;10535;50.664;4.564;2022-10-31T16:32:26;12.57;;;6.03;;
20749;SDS011;10535;50.664;4.564;2022-10-31T16:35:16;16.23;;;5.97;;
20749;SDS011;10535;50.664;4.564;2022-10-31T16:37:40;7.87;;;5.03;;
20749;SDS011;10535;50.664;4.564;2022-10-31T16:40:07;7.27;;;3.63;;
20749;SDS011;10535;50.664;4.564;2022-10-31T16:42:41;8.93;;;5.00;;
20749;SDS011;10535;50.664;4.564;2022-10-31T16:45:08;9.77;;;4.00;;
20749;SDS011;10535;50.664;4.564;2022-10-31T16:47:44;6.77;;;3.43;;
20749;SDS011;10535;50.664;4.564;2022-10-31T16:50:11;8.03;;;3.90;;
20749;SDS011;10535;50.664;4.564;2022-10-31T16:52:39;5.43;;;3.83;;
20749;SDS011;10535;50.664;4.564;2022-10-31T16:55:04;10.63;;;4.37;;
20749;SDS011;10535;50.664;4.564;2022-10-31T16:57:30;8.40;;;4.77;;
20749;SDS011;10535;50.664;4.564;2022-10-31T16:59:56;9.50;;;4.60;;